createdAt,value
2018-01-23T00:02:19.493Z,2.47
2018-01-23T00:04:46.959Z,3.13
2018-01-23T00:07:14.417Z,3.03
2018-01-23T00:09:41.903Z,2.60
2018-01-23T00:12:09.368Z,4.53
2018-01-23T00:14:36.806Z,3.93
2018-01-23T00:17:04.252Z,4.20
2018-01-23T00:19:31.705Z,3.70
2018-01-23T00:21:59.265Z,5.60
2018-01-23T00:24:26.938Z,3.27
2018-01-23T00:26:54.372Z,2.83
2018-01-23T00:29:21.821Z,3.20
2018-01-23T00:31:49.349Z,2.50
2018-01-23T00:34:16.791Z,3.57
2018-01-23T00:36:44.248Z,3.63
2018-01-23T00:39:11.684Z,3.90
2018-01-23T00:41:39.134Z,5.20
2018-01-23T00:44:06.585Z,4.30
2018-01-23T00:46:34.047Z,4.27
2018-01-23T00:49:01.708Z,5.70
2018-01-23T00:51:29.148Z,4.80
2018-01-23T00:53:56.593Z,3.90
2018-01-23T00:56:24.055Z,2.87
2018-01-23T00:58:51.493Z,3.13
2018-01-23T01:01:19.293Z,3.20
2018-01-23T01:03:46.732Z,2.77
2018-01-23T01:06:14.173Z,3.80
2018-01-23T01:08:41.644Z,5.60
2018-01-23T01:11:09.080Z,4.30
2018-01-23T01:13:36.720Z,3.53
2018-01-23T01:16:04.157Z,3.50
2018-01-23T01:18:31.597Z,3.80
2018-01-23T01:20:59.061Z,3.90
2018-01-23T01:23:26.509Z,3.50
2018-01-23T01:25:54.374Z,3.70
2018-01-23T01:28:21.808Z,2.87
2018-01-23T01:30:49.249Z,3.33
2018-01-23T01:33:16.732Z,4.00
2018-01-23T01:35:44.168Z,3.33
2018-01-23T01:38:11.862Z,2.30
2018-01-23T01:40:39.306Z,3.53
2018-01-23T01:43:06.740Z,3.20
2018-01-23T01:45:34.204Z,2.63
2018-01-23T01:48:01.642Z,3.60
2018-01-23T01:50:29.112Z,3.67
2018-01-23T01:52:56.547Z,2.90
2018-01-23T01:55:23.989Z,3.30
2018-01-23T01:57:51.450Z,3.90
2018-01-23T02:00:18.888Z,3.90
2018-01-23T02:02:46.384Z,3.23
2018-01-23T02:05:13.836Z,4.30
2018-01-23T02:07:41.275Z,2.33
2018-01-23T02:10:09.088Z,2.63
2018-01-23T02:12:36.525Z,3.53
2018-01-23T02:15:03.985Z,2.90
2018-01-23T02:17:31.426Z,3.37
2018-01-23T02:19:58.860Z,2.80
2018-01-23T02:22:26.316Z,3.20
2018-01-23T02:24:53.753Z,3.27
2018-01-23T02:27:21.498Z,2.53
2018-01-23T02:29:48.938Z,3.47
2018-01-23T02:32:16.393Z,3.23
2018-01-23T02:34:43.848Z,4.90
2018-01-23T02:37:11.287Z,3.97
2018-01-23T02:39:39.085Z,2.90
2018-01-23T02:42:06.517Z,3.23
2018-01-23T02:44:33.980Z,2.80
2018-01-23T02:47:01.440Z,3.57
2018-01-23T02:49:28.881Z,3.10
2018-01-23T02:51:56.502Z,2.47
2018-01-23T02:54:23.945Z,3.60
2018-01-23T02:56:51.385Z,2.40
2018-01-23T02:59:18.852Z,2.20
2018-01-23T03:01:46.293Z,3.60
2018-01-23T03:04:13.768Z,3.33
2018-01-23T03:06:41.209Z,2.60
2018-01-23T03:09:08.668Z,2.50
2018-01-23T03:11:36.125Z,3.10
2018-01-23T03:14:03.584Z,3.37
2018-01-23T03:16:31.073Z,2.63
2018-01-23T03:18:58.512Z,3.20
2018-01-23T03:21:25.955Z,2.23
2018-01-23T03:23:53.447Z,2.40
2018-01-23T03:26:21.276Z,3.13
2018-01-23T03:28:48.744Z,2.53
2018-01-23T03:31:16.202Z,3.93
2018-01-23T03:33:43.644Z,3.83
2018-01-23T03:36:11.101Z,2.90
2018-01-23T03:38:38.537Z,2.30
2018-01-23T03:41:06.062Z,2.43
2018-01-23T03:43:33.474Z,3.00
2018-01-23T03:46:00.916Z,3.23
2018-01-23T03:48:28.382Z,3.40
2018-01-23T03:50:55.812Z,4.00
2018-01-23T03:53:23.469Z,3.13
2018-01-23T03:55:51.088Z,3.50
2018-01-23T03:58:18.529Z,2.70
2018-01-23T04:00:45.985Z,3.37
2018-01-23T04:03:13.421Z,2.77
2018-01-23T04:05:40.921Z,2.57
2018-01-23T04:08:08.357Z,3.33
2018-01-23T04:10:35.809Z,3.80
2018-01-23T04:13:03.277Z,3.73
2018-01-23T04:15:30.716Z,3.00
2018-01-23T04:17:58.581Z,2.80
2018-01-23T04:20:26.017Z,2.90
2018-01-23T04:22:53.482Z,2.93
2018-01-23T04:25:20.968Z,2.77
2018-01-23T04:27:48.408Z,3.10
2018-01-23T04:30:16.090Z,2.40
2018-01-23T04:32:43.532Z,3.00
2018-01-23T04:35:10.984Z,2.60
2018-01-23T04:37:38.444Z,3.20
2018-01-23T04:40:05.881Z,3.97
2018-01-23T04:42:33.548Z,2.30
2018-01-23T04:45:00.984Z,3.87
2018-01-23T04:47:28.420Z,3.57
2018-01-23T04:49:55.902Z,4.00
2018-01-23T04:52:23.363Z,3.43
2018-01-23T04:54:50.924Z,3.13
2018-01-23T04:57:18.365Z,3.40
2018-01-23T04:59:45.808Z,3.53
2018-01-23T05:02:13.260Z,2.50
2018-01-23T05:04:40.704Z,3.23
2018-01-23T05:07:08.301Z,3.40
2018-01-23T05:09:35.741Z,2.90
2018-01-23T05:12:03.174Z,2.20
2018-01-23T05:14:30.666Z,3.20
2018-01-23T05:16:58.116Z,4.00
2018-01-23T05:19:25.696Z,4.07
2018-01-23T05:21:53.172Z,2.77
2018-01-23T05:24:20.638Z,2.40
2018-01-23T05:26:48.100Z,3.00
2018-01-23T05:29:15.533Z,2.67
2018-01-23T05:31:43.213Z,3.70
2018-01-23T05:34:10.670Z,3.10
2018-01-23T05:36:38.152Z,4.00
2018-01-23T05:39:05.618Z,2.97
2018-01-23T05:41:33.068Z,3.00
2018-01-23T05:44:00.686Z,3.23
2018-01-23T05:46:28.142Z,4.33
2018-01-23T05:48:55.599Z,4.67
2018-01-23T05:51:23.069Z,2.60
2018-01-23T05:53:50.520Z,3.90
2018-01-23T05:56:18.084Z,4.30
2018-01-23T05:58:45.560Z,3.97
2018-01-23T06:01:12.997Z,2.90
2018-01-23T06:03:40.495Z,3.00
2018-01-23T06:06:07.932Z,2.77
2018-01-23T06:08:35.857Z,3.70
2018-01-23T06:11:03.302Z,3.00
2018-01-23T06:13:30.752Z,2.63
2018-01-23T06:15:58.288Z,3.63
2018-01-23T06:18:25.728Z,4.50
2018-01-23T06:20:53.212Z,4.97
2018-01-23T06:23:20.669Z,3.57
2018-01-23T06:25:48.111Z,4.27
2018-01-23T06:28:15.684Z,3.67
2018-01-23T06:30:43.136Z,4.50
2018-01-23T06:33:10.625Z,2.90
2018-01-23T06:35:38.091Z,4.73
2018-01-23T06:38:05.536Z,3.50
2018-01-23T06:40:33.004Z,3.93
2018-01-23T06:43:00.450Z,3.70
2018-01-23T06:45:27.889Z,4.50
2018-01-23T06:47:55.352Z,4.60
2018-01-23T06:50:22.789Z,3.70
2018-01-23T06:52:51.268Z,3.80
2018-01-23T06:55:18.725Z,3.90
2018-01-23T06:57:46.177Z,3.73
2018-01-23T07:00:13.636Z,3.47
2018-01-23T07:02:41.081Z,3.20
2018-01-23T07:05:08.521Z,3.33
2018-01-23T07:07:35.998Z,3.77
2018-01-23T07:10:03.432Z,4.40
2018-01-23T07:12:30.878Z,3.23
2018-01-23T07:14:58.366Z,3.93
2018-01-23T07:17:25.798Z,3.43
2018-01-23T07:19:53.256Z,3.90
2018-01-23T07:22:20.712Z,3.57
2018-01-23T07:24:55.300Z,4.40
2018-01-23T07:27:23.173Z,3.60
2018-01-23T07:29:50.628Z,4.87
2018-01-23T07:32:19.475Z,3.60
2018-01-23T07:34:46.976Z,4.20
2018-01-23T07:37:14.425Z,3.87
2018-01-23T07:39:42.198Z,3.20
2018-01-23T07:42:09.641Z,3.70
2018-01-23T07:44:37.180Z,3.23
2018-01-23T07:47:04.649Z,3.70
2018-01-23T07:49:32.114Z,4.03
2018-01-23T07:51:59.805Z,4.47
2018-01-23T07:54:27.261Z,4.03
2018-01-23T07:56:54.713Z,3.57
2018-01-23T07:59:22.217Z,4.23
2018-01-23T08:01:49.705Z,4.27
2018-01-23T08:04:17.382Z,2.97
2018-01-23T08:06:44.827Z,3.77
2018-01-23T08:09:12.269Z,3.90
2018-01-23T08:11:39.725Z,3.90
2018-01-23T08:14:07.166Z,3.73
2018-01-23T08:16:34.669Z,4.50
2018-01-23T08:19:02.113Z,4.97
2018-01-23T08:21:29.557Z,4.20
2018-01-23T08:23:57.034Z,5.47
2018-01-23T08:26:24.482Z,5.33
2018-01-23T08:28:52.052Z,4.50
2018-01-23T08:31:19.508Z,3.60
2018-01-23T08:33:46.951Z,4.83
2018-01-23T08:36:14.428Z,4.00
2018-01-23T08:38:41.892Z,4.17
2018-01-23T08:41:09.504Z,5.23
2018-01-23T08:43:36.969Z,4.80
2018-01-23T08:46:04.409Z,4.90
2018-01-23T08:48:31.897Z,4.50
2018-01-23T08:50:59.332Z,4.70
2018-01-23T08:53:27.020Z,5.00
2018-01-23T08:55:54.461Z,4.33
2018-01-23T08:58:21.906Z,5.20
2018-01-23T09:00:49.368Z,4.80
2018-01-23T09:03:16.819Z,5.20
2018-01-23T09:05:44.611Z,4.73
2018-01-23T09:08:12.071Z,5.40
2018-01-23T09:10:39.710Z,4.80
2018-01-23T09:13:07.181Z,4.93
2018-01-23T09:15:34.621Z,5.53
2018-01-23T09:18:02.104Z,6.20
2018-01-23T09:20:30.526Z,5.53
2018-01-23T09:22:57.966Z,5.70
2018-01-23T09:25:25.428Z,6.23
2018-01-23T09:27:52.865Z,5.60
2018-01-23T09:30:20.557Z,5.37
2018-01-23T09:32:48.037Z,6.53
2018-01-23T09:35:15.484Z,5.20
2018-01-23T09:37:42.945Z,7.03
2018-01-23T09:40:10.401Z,6.90
2018-01-23T09:42:37.880Z,6.10
2018-01-23T09:45:05.321Z,4.80
2018-01-23T09:47:32.773Z,6.50
2018-01-23T09:50:00.242Z,5.47
2018-01-23T09:52:27.676Z,6.13
2018-01-23T09:54:55.170Z,5.10
2018-01-23T09:57:22.609Z,5.50
2018-01-23T09:59:50.054Z,6.40
2018-01-23T10:02:17.523Z,5.20
2018-01-23T10:04:44.973Z,6.73
2018-01-23T10:07:12.608Z,7.27
2018-01-23T10:09:40.077Z,7.83
2018-01-23T10:12:07.521Z,6.53
2018-01-23T10:14:35.005Z,5.63
2018-01-23T10:17:02.478Z,5.60
2018-01-23T10:19:30.147Z,6.30
2018-01-23T10:21:57.599Z,5.90
2018-01-23T10:24:25.084Z,6.77
2018-01-23T10:26:52.568Z,6.47
2018-01-23T10:29:20.005Z,5.80
2018-01-23T10:31:47.716Z,6.23
2018-01-23T10:34:15.156Z,6.37
2018-01-23T10:36:42.598Z,6.23
2018-01-23T10:39:10.089Z,5.63
2018-01-23T10:41:37.533Z,6.00
2018-01-23T10:44:05.070Z,5.80
2018-01-23T10:46:32.505Z,5.80
2018-01-23T10:48:59.953Z,5.57
2018-01-23T10:51:27.416Z,4.90
2018-01-23T10:53:54.864Z,5.20
2018-01-23T10:56:23.429Z,4.80
2018-01-23T10:58:50.865Z,4.30
2018-01-23T11:01:18.316Z,5.20
2018-01-23T11:03:45.776Z,6.70
2018-01-23T11:06:13.220Z,5.70
2018-01-23T11:08:41.013Z,5.77
2018-01-23T11:11:08.461Z,6.37
2018-01-23T11:13:35.926Z,5.70
2018-01-23T11:16:03.388Z,4.87
2018-01-23T11:18:30.832Z,5.10
2018-01-23T11:20:58.602Z,5.03
2018-01-23T11:23:26.041Z,5.80
2018-01-23T11:25:53.481Z,5.83
2018-01-23T11:28:20.949Z,4.63
2018-01-23T11:30:48.388Z,4.83
2018-01-23T11:33:15.849Z,4.87
2018-01-23T11:35:43.305Z,3.70
2018-01-23T11:38:10.752Z,4.33
2018-01-23T11:40:38.228Z,4.93
2018-01-23T11:43:05.685Z,18.57
2018-01-23T11:45:33.159Z,17.20
2018-01-23T11:48:00.641Z,16.63
2018-01-23T11:50:28.081Z,7.63
2018-01-23T11:52:55.550Z,4.30
2018-01-23T11:55:22.985Z,4.70
2018-01-23T11:57:50.433Z,5.27
2018-01-23T12:00:17.899Z,4.83
2018-01-23T12:02:45.351Z,4.57
2018-01-23T12:05:12.802Z,5.40
2018-01-23T12:07:40.264Z,3.90
2018-01-23T12:10:07.705Z,3.80
2018-01-23T12:12:35.272Z,5.23
2018-01-23T12:15:02.800Z,4.40
2018-01-23T12:17:30.245Z,4.70
2018-01-23T12:19:57.696Z,4.47
2018-01-23T12:22:25.153Z,3.70
2018-01-23T12:24:52.593Z,4.10
2018-01-23T12:27:20.033Z,3.97
2018-01-23T12:29:47.489Z,4.97
2018-01-23T12:32:14.924Z,4.67
2018-01-23T12:34:42.369Z,6.27
2018-01-23T12:37:09.829Z,4.27
2018-01-23T12:39:37.277Z,4.73
2018-01-23T12:42:04.717Z,4.50
2018-01-23T12:44:32.282Z,4.80
2018-01-23T12:46:59.744Z,4.30
2018-01-23T12:49:27.190Z,4.90
2018-01-23T12:51:54.653Z,4.43
2018-01-23T12:54:22.104Z,3.67
2018-01-23T12:56:49.540Z,3.90
2018-01-23T12:59:16.996Z,3.70
2018-01-23T13:01:44.437Z,3.60
2018-01-23T13:04:11.897Z,2.97
2018-01-23T13:06:39.376Z,4.10
2018-01-23T13:09:06.812Z,4.80
2018-01-23T13:11:34.252Z,3.77
2018-01-23T13:14:01.712Z,4.80
2018-01-23T13:16:29.257Z,4.40
2018-01-23T13:18:56.703Z,4.33
2018-01-23T13:21:24.201Z,3.90
2018-01-23T13:23:51.655Z,5.50
2018-01-23T13:26:19.157Z,4.80
2018-01-23T13:28:47.120Z,3.63
2018-01-23T13:31:14.577Z,3.90
2018-01-23T13:33:42.024Z,4.30
2018-01-23T13:36:09.489Z,4.07
2018-01-23T13:38:37.012Z,3.70
2018-01-23T13:41:04.457Z,4.40
2018-01-23T13:43:31.916Z,3.27
2018-01-23T13:45:59.356Z,4.53
2018-01-23T13:48:26.801Z,3.90
2018-01-23T13:50:54.318Z,3.20
2018-01-23T13:53:21.768Z,3.33
2018-01-23T13:55:49.213Z,3.10
2018-01-23T13:58:16.675Z,3.50
2018-01-23T14:00:44.125Z,3.70
2018-01-23T14:03:11.608Z,3.67
2018-01-23T14:05:39.313Z,4.20
2018-01-23T14:08:06.748Z,4.40
2018-01-23T14:10:34.194Z,4.20
2018-01-23T14:13:01.886Z,3.73
2018-01-23T14:15:29.336Z,3.87
2018-01-23T14:17:56.782Z,3.17
2018-01-23T14:20:24.292Z,3.80
2018-01-23T14:22:51.734Z,4.20
2018-01-23T14:25:19.180Z,2.67
2018-01-23T14:27:46.672Z,3.93
2018-01-23T14:30:14.126Z,3.20
2018-01-23T14:32:41.569Z,3.27
2018-01-23T14:35:09.028Z,3.47
2018-01-23T14:37:36.482Z,3.40
2018-01-23T14:40:03.977Z,4.00
2018-01-23T14:42:31.414Z,2.70
2018-01-23T14:44:58.852Z,3.80
2018-01-23T14:47:26.385Z,3.50
2018-01-23T14:49:53.825Z,3.83
2018-01-23T14:52:21.297Z,3.47
2018-01-23T14:54:48.788Z,3.10
2018-01-23T14:57:16.269Z,3.40
2018-01-23T14:59:43.866Z,3.97
2018-01-23T15:02:11.309Z,3.07
2018-01-23T15:04:38.762Z,3.53
2018-01-23T15:07:06.240Z,3.03
2018-01-23T15:09:33.709Z,3.67
2018-01-23T15:12:01.293Z,3.50
2018-01-23T15:14:28.786Z,4.00
2018-01-23T15:16:56.220Z,3.93
2018-01-23T15:19:23.686Z,4.40
2018-01-23T15:21:51.127Z,2.97
2018-01-23T15:24:18.629Z,3.00
2018-01-23T15:26:46.082Z,2.77
2018-01-23T15:29:13.523Z,3.00
2018-01-23T15:31:41.001Z,3.20
2018-01-23T15:34:08.445Z,3.43
2018-01-23T15:36:36.212Z,3.43
2018-01-23T15:39:03.669Z,3.10
2018-01-23T15:41:31.112Z,2.70
2018-01-23T15:43:58.573Z,2.30
2018-01-23T15:46:26.009Z,2.70
2018-01-23T15:48:53.769Z,3.70
2018-01-23T15:51:21.205Z,2.60
2018-01-23T15:53:48.649Z,3.67
2018-01-23T15:56:16.113Z,2.50
2018-01-23T15:58:43.569Z,2.37
2018-01-23T16:01:11.032Z,3.67
2018-01-23T16:03:38.507Z,4.37
2018-01-23T16:06:05.959Z,4.93
2018-01-23T16:08:33.420Z,3.23
2018-01-23T16:11:00.864Z,5.87
2018-01-23T16:13:28.334Z,3.43
2018-01-23T16:15:55.780Z,5.23
2018-01-23T16:18:23.225Z,6.57
2018-01-23T16:20:50.681Z,6.00
2018-01-23T16:23:18.136Z,5.40
2018-01-23T16:25:45.615Z,3.90
2018-01-23T16:28:13.056Z,5.30
2018-01-23T16:30:40.502Z,4.43
2018-01-23T16:33:07.969Z,4.83
2018-01-23T16:35:35.409Z,4.47
2018-01-23T16:38:03.256Z,3.07
2018-01-23T16:40:30.693Z,3.10
2018-01-23T16:42:58.146Z,3.87
2018-01-23T16:45:25.604Z,2.67
2018-01-23T16:47:53.041Z,5.07
2018-01-23T16:50:20.641Z,3.90
2018-01-23T16:52:48.092Z,5.60
2018-01-23T16:55:15.532Z,3.60
2018-01-23T16:57:43.013Z,4.33
2018-01-23T17:00:10.481Z,3.97
2018-01-23T17:02:38.135Z,2.43
2018-01-23T17:05:05.598Z,3.60
2018-01-23T17:07:33.061Z,3.50
2018-01-23T17:10:00.573Z,2.83
2018-01-23T17:12:28.014Z,2.43
2018-01-23T17:14:55.627Z,3.00
2018-01-23T17:17:23.074Z,3.13
2018-01-23T17:19:50.538Z,2.77
2018-01-23T17:22:18.013Z,3.17
2018-01-23T17:24:45.456Z,3.10
2018-01-23T17:27:13.142Z,3.40
2018-01-23T17:29:40.616Z,4.27
2018-01-23T17:32:08.069Z,4.90
2018-01-23T17:34:35.554Z,2.80
2018-01-23T17:37:03.010Z,3.90
2018-01-23T17:39:30.513Z,3.20
2018-01-23T17:41:57.973Z,3.23
2018-01-23T17:44:25.440Z,2.20
2018-01-23T17:46:52.948Z,1.90
2018-01-23T17:49:20.403Z,3.67
2018-01-23T17:51:48.085Z,2.83
2018-01-23T17:54:15.569Z,3.23
2018-01-23T17:56:43.033Z,2.70
2018-01-23T17:59:10.513Z,2.77
2018-01-23T18:01:37.963Z,2.60
2018-01-23T18:04:05.661Z,3.30
2018-01-23T18:06:33.108Z,2.93
2018-01-23T18:09:00.546Z,2.27
2018-01-23T18:11:28.009Z,2.57
2018-01-23T18:13:55.460Z,2.60
2018-01-23T18:16:23.936Z,4.07
2018-01-23T18:18:51.397Z,3.70
2018-01-23T18:21:18.832Z,3.73
2018-01-23T18:23:46.311Z,4.60
2018-01-23T18:26:13.758Z,3.90
2018-01-23T18:28:41.449Z,4.57
2018-01-23T18:31:08.889Z,2.80
2018-01-23T18:33:36.330Z,3.50
2018-01-23T18:36:03.805Z,8.83
2018-01-23T18:38:31.263Z,6.27
2018-01-23T18:40:58.942Z,10.57
2018-01-23T18:43:26.391Z,18.63
2018-01-23T18:45:53.889Z,10.20
2018-01-23T18:48:21.374Z,12.37
2018-01-23T18:50:48.900Z,4.20
2018-01-23T18:53:16.497Z,2.27
2018-01-23T18:55:43.942Z,3.23
2018-01-23T18:58:11.377Z,2.10
2018-01-23T19:00:38.881Z,1.30
2018-01-23T19:03:06.345Z,1.53
2018-01-23T19:05:33.841Z,1.90
2018-01-23T19:08:01.281Z,1.70
2018-01-23T19:10:28.882Z,3.13
2018-01-23T19:12:56.376Z,9.23
2018-01-23T19:15:23.820Z,3.53
2018-01-23T19:17:51.285Z,1.37
2018-01-23T19:20:18.731Z,2.00
2018-01-23T19:22:46.297Z,1.60
2018-01-23T19:25:13.761Z,2.67
2018-01-23T19:27:41.205Z,2.77
2018-01-23T19:30:09.017Z,2.20
2018-01-23T19:32:36.475Z,3.40
2018-01-23T19:35:03.943Z,3.77
2018-01-23T19:37:31.629Z,3.43
2018-01-23T19:39:59.069Z,2.63
2018-01-23T19:42:27.029Z,2.97
2018-01-23T19:44:54.468Z,2.50
2018-01-23T19:47:22.785Z,5.20
2018-01-23T19:49:50.266Z,4.60
2018-01-23T19:52:17.712Z,3.23
2018-01-23T19:54:45.309Z,2.67
2018-01-23T19:57:12.765Z,2.87
2018-01-23T19:59:40.208Z,3.10
2018-01-23T20:02:07.671Z,3.60
2018-01-23T20:04:35.169Z,2.47
2018-01-23T20:07:03.751Z,3.10
2018-01-23T20:09:31.193Z,3.50
2018-01-23T20:11:58.632Z,3.60
2018-01-23T20:14:26.098Z,2.87
2018-01-23T20:16:54.652Z,2.53
2018-01-23T20:19:22.124Z,3.33
2018-01-23T20:21:49.574Z,2.60
2018-01-23T20:24:17.889Z,4.60
2018-01-23T20:26:45.341Z,8.27
2018-01-23T20:29:12.800Z,10.77
2018-01-23T20:31:40.336Z,9.57
2018-01-23T20:34:07.793Z,5.60
2018-01-23T20:36:35.260Z,4.80
2018-01-23T20:39:02.729Z,3.47
2018-01-23T20:41:30.882Z,2.73
2018-01-23T20:43:58.394Z,3.33
2018-01-23T20:46:25.829Z,3.80
2018-01-23T20:48:53.317Z,3.43
2018-01-23T20:51:20.753Z,3.63
2018-01-23T20:53:48.240Z,3.40
2018-01-23T20:56:15.769Z,4.63
2018-01-23T20:58:43.225Z,4.33
2018-01-23T21:01:10.692Z,5.27
2018-01-23T21:03:38.129Z,2.53
2018-01-23T21:06:05.637Z,3.50
2018-01-23T21:08:33.125Z,2.70
2018-01-23T21:11:00.600Z,1.87
2018-01-23T21:13:28.233Z,2.70
2018-01-23T21:15:55.709Z,2.67
2018-01-23T21:18:23.153Z,3.07
2018-01-23T21:20:50.609Z,2.67
2018-01-23T21:23:18.049Z,3.20
2018-01-23T21:25:45.613Z,1.70
2018-01-23T21:28:13.051Z,2.20
2018-01-23T21:30:40.660Z,2.90
2018-01-23T21:33:08.133Z,3.00
2018-01-23T21:35:35.572Z,2.40
2018-01-23T21:38:03.517Z,2.30
2018-01-23T21:40:30.957Z,2.83
2018-01-23T21:42:58.403Z,3.67
2018-01-23T21:45:25.917Z,2.40
2018-01-23T21:47:53.353Z,2.90
2018-01-23T21:50:21.285Z,2.63
2018-01-23T21:52:48.720Z,2.77
2018-01-23T21:55:16.165Z,2.77
2018-01-23T21:57:43.650Z,2.83
2018-01-23T22:00:11.085Z,2.90
2018-01-23T22:02:38.544Z,2.90
2018-01-23T22:05:05.980Z,2.93
2018-01-23T22:07:33.436Z,2.57
2018-01-23T22:10:00.913Z,3.80
2018-01-23T22:12:28.348Z,3.00
2018-01-23T22:14:56.049Z,3.30
2018-01-23T22:17:23.490Z,2.67
2018-01-23T22:19:50.924Z,2.80
2018-01-23T22:22:18.389Z,2.83
2018-01-23T22:24:45.857Z,3.30
2018-01-23T22:27:13.768Z,3.50
2018-01-23T22:29:41.210Z,3.33
2018-01-23T22:32:08.682Z,4.47
2018-01-23T22:34:36.140Z,3.07
2018-01-23T22:37:03.580Z,4.13
2018-01-23T22:39:31.045Z,3.27
2018-01-23T22:41:58.484Z,3.27
2018-01-23T22:44:25.944Z,3.90
2018-01-23T22:46:53.412Z,4.07
2018-01-23T22:49:20.864Z,4.03
2018-01-23T22:51:48.515Z,3.60
2018-01-23T22:54:15.950Z,4.97
2018-01-23T22:56:43.389Z,4.30
2018-01-23T22:59:10.858Z,4.33
2018-01-23T23:01:38.301Z,4.30
2018-01-23T23:04:06.014Z,4.07
2018-01-23T23:06:33.493Z,3.97
2018-01-23T23:09:00.929Z,4.10
2018-01-23T23:11:28.393Z,4.73
2018-01-23T23:13:55.829Z,5.90
2018-01-23T23:16:23.296Z,4.37
2018-01-23T23:18:50.736Z,4.43
2018-01-23T23:21:18.177Z,4.03
2018-01-23T23:23:45.636Z,4.60
2018-01-23T23:26:13.088Z,4.00
2018-01-23T23:28:40.568Z,5.57
2018-01-23T23:31:08.175Z,4.17
2018-01-23T23:33:35.616Z,4.47
2018-01-23T23:36:03.122Z,4.03
2018-01-23T23:38:30.569Z,4.40
2018-01-23T23:40:58.241Z,4.70
2018-01-23T23:43:25.677Z,4.80
2018-01-23T23:45:53.120Z,4.60
2018-01-23T23:48:20.589Z,4.73
2018-01-23T23:50:48.033Z,5.77
2018-01-23T23:53:15.540Z,5.80
2018-01-23T23:55:42.977Z,5.27
2018-01-23T23:58:10.432Z,5.03
